Time;durP1;ratioP1;P1;durP2;ratioP2;P2;SDS_P1;SDS_P2;PMS_P1;PMS_P2;Temp;Humidity;BMP_temperature;BMP_pressure;BME280_temperature;BME280_humidity;BME280_pressure;Samples;Min_cycle;Max_cycle;Signal;HPM_P1;HPM_P2
2024/04/15 00:02:12;;;;;;;;;;;;;;;12.44;86.24;96402.73;108441;1284;22500;-86
2024/04/15 00:04:38;;;;;;;;;;;;;;;12.41;86.33;96400.00;108403;1285;22576;-86
2024/04/15 00:07:05;;;;;;;;;;;;;;;12.40;86.82;96394.51;108340;1276;124946;-87
2024/04/15 00:09:31;;;;;;;;;;;;;;;12.43;86.91;96386.81;108454;1284;24224;-87
2024/04/15 00:11:57;;;;;;;;;;;;;;;12.43;87.11;96383.05;108312;1284;125186;-87
2024/04/15 00:14:24;;;;;;;;;;;;;;;12.42;86.82;96384.30;108356;1284;23218;-87
2024/04/15 00:16:50;;;;;;;;;;;;;;;12.38;86.86;96382.52;108441;1284;22538;-87
2024/04/15 00:19:16;;;;;;;;;;;;;;;12.36;87.17;96379.83;108321;1284;124946;-87
2024/04/15 00:21:43;;;;;;;;;;;;;;;12.36;87.43;96379.44;108451;1277;22506;-87
2024/04/15 00:24:09;;;;;;;;;;;;;;;12.36;87.85;96375.51;108366;1274;125158;-86
2024/04/15 00:26:36;;;;;;;;;;;;;;;12.33;87.64;96372.61;108414;1276;23168;-86
2024/04/15 00:29:02;;;;;;;;;;;;;;;12.33;87.56;96365.71;108464;1277;22543;-87
2024/04/15 00:31:29;;;;;;;;;;;;;;;12.34;88.11;96363.19;108285;1284;125017;-87
2024/04/15 00:33:56;;;;;;;;;;;;;;;12.33;88.10;96353.70;108379;1284;22534;-86
2024/04/15 00:36:23;;;;;;;;;;;;;;;12.32;88.01;96348.15;108357;1280;124911;-86
2024/04/15 00:38:50;;;;;;;;;;;;;;;12.31;88.44;96335.61;108416;1284;22540;-87
2024/04/15 00:41:16;;;;;;;;;;;;;;;12.29;88.68;96331.64;108423;1285;22558;-88
2024/04/15 00:43:42;;;;;;;;;;;;;;;12.27;88.43;96327.21;108321;1284;124851;-86
2024/04/15 00:46:09;;;;;;;;;;;;;;;12.27;88.27;96322.89;108419;1284;22499;-87
2024/04/15 00:48:36;;;;;;;;;;;;;;;12.26;88.16;96313.15;108363;1277;125427;-87
2024/04/15 00:51:02;;;;;;;;;;;;;;;12.23;87.95;96310.93;108451;1284;25384;-87
2024/04/15 00:53:29;;;;;;;;;;;;;;;12.20;88.13;96301.17;108289;1284;125148;-87
2024/04/15 00:55:55;;;;;;;;;;;;;;;12.18;88.26;96300.11;108356;1285;22546;-87
2024/04/15 00:58:22;;;;;;;;;;;;;;;12.15;88.47;96294.92;108330;1284;22520;-88
2024/04/15 01:00:49;;;;;;;;;;;;;;;12.13;88.96;96293.48;108301;1283;124886;-87
2024/04/15 01:03:15;;;;;;;;;;;;;;;12.10;89.06;96289.98;108417;1274;22500;-88
2024/04/15 01:05:42;;;;;;;;;;;;;;;12.06;88.94;96287.41;108309;1284;125838;-87
2024/04/15 01:08:08;;;;;;;;;;;;;;;12.02;89.10;96281.57;108433;1276;26917;-87
2024/04/15 01:10:34;;;;;;;;;;;;;;;12.00;89.55;96276.46;108475;1277;22503;-87
2024/04/15 01:13:01;;;;;;;;;;;;;;;12.02;89.84;96270.34;108329;1280;124951;-87
2024/04/15 01:15:27;;;;;;;;;;;;;;;12.02;89.96;96257.64;108391;1271;22559;-87
2024/04/15 01:17:54;;;;;;;;;;;;;;;12.01;89.98;96257.64;108238;1284;125075;-87
2024/04/15 01:20:20;;;;;;;;;;;;;;;12.01;90.18;96249.91;108336;1284;25222;-87
2024/04/15 01:23:08;;;;;;;;;;;;;;;12.01;90.26;96253.71;108436;1277;22521;-87
2024/04/15 01:25:34;;;;;;;;;;;;;;;12.01;90.25;96244.42;108327;1280;125494;-87
2024/04/15 01:28:01;;;;;;;;;;;;;;;11.99;90.17;96239.60;108353;1284;22515;-86
2024/04/15 01:30:28;;;;;;;;;;;;;;;11.99;90.11;96234.95;108242;1284;124989;-87
2024/04/15 01:32:55;;;;;;;;;;;;;;;11.97;90.25;96230.78;108424;1280;22510;-87
2024/04/15 01:35:21;;;;;;;;;;;;;;;11.95;90.76;96231.98;108443;1284;23284;-87
2024/04/15 01:37:49;;;;;;;;;;;;;;;11.93;91.01;96232.06;108404;1284;22555;-86
2024/04/15 01:40:16;;;;;;;;;;;;;;;11.94;91.35;96229.98;108341;1277;22536;-87
2024/04/15 01:42:42;;;;;;;;;;;;;;;11.95;91.63;96225.05;108292;1271;125029;-86
2024/04/15 01:45:08;;;;;;;;;;;;;;;11.94;91.56;96216.84;108361;1284;25404;-87
2024/04/15 01:47:35;;;;;;;;;;;;;;;11.94;91.95;96212.11;108334;1278;125150;-86
2024/04/15 01:50:01;;;;;;;;;;;;;;;11.93;91.78;96208.70;108369;1276;22533;-86
2024/04/15 01:52:28;;;;;;;;;;;;;;;11.91;91.87;96208.58;108397;1284;22505;-86
2024/04/15 01:54:54;;;;;;;;;;;;;;;11.89;91.85;96204.98;108298;1285;125158;-86
2024/04/15 01:57:21;;;;;;;;;;;;;;;11.89;91.74;96200.36;108337;1284;23873;-87
2024/04/15 01:59:47;;;;;;;;;;;;;;;11.89;91.77;96196.64;108275;1280;125539;-87
2024/04/15 02:02:14;;;;;;;;;;;;;;;11.88;91.78;96191.80;108387;1280;25386;-86
2024/04/15 02:04:40;;;;;;;;;;;;;;;11.86;92.44;96181.73;108452;1284;22502;-87
2024/04/15 02:07:06;;;;;;;;;;;;;;;11.84;92.31;96170.23;108270;1283;125128;-87
2024/04/15 02:09:33;;;;;;;;;;;;;;;11.81;92.27;96159.98;108353;1284;22516;-87
2024/04/15 02:12:01;;;;;;;;;;;;;;;11.82;92.31;96160.39;108324;1276;125177;-86
2024/04/15 02:14:27;;;;;;;;;;;;;;;11.82;92.18;96157.14;108402;1280;22569;-86
2024/04/15 02:16:53;;;;;;;;;;;;;;;11.80;92.43;96148.69;108433;1284;22519;-87
2024/04/15 02:19:20;;;;;;;;;;;;;;;11.75;92.35;96143.52;108357;1284;124909;-88
2024/04/15 02:21:46;;;;;;;;;;;;;;;11.71;92.46;96135.53;108452;1278;22549;-88
2024/04/15 02:24:13;;;;;;;;;;;;;;;11.69;92.68;96125.95;108360;1264;124934;-88
2024/04/15 02:26:39;;;;;;;;;;;;;;;11.67;93.02;96118.85;108451;1284;22531;-86
2024/04/15 02:29:06;;;;;;;;;;;;;;;11.67;93.51;96113.33;108437;1284;22560;-87
2024/04/15 02:31:32;;;;;;;;;;;;;;;11.67;93.73;96109.73;108352;1277;124998;-86
2024/04/15 02:33:58;;;;;;;;;;;;;;;11.66;93.46;96103.11;108437;1284;23193;-87
2024/04/15 02:36:25;;;;;;;;;;;;;;;11.63;93.46;96093.58;108259;1284;124967;-87
2024/04/15 02:38:52;;;;;;;;;;;;;;;11.61;93.82;96091.93;108395;1284;22503;-87
2024/04/15 02:41:18;;;;;;;;;;;;;;;11.58;93.44;96086.20;108420;1275;22545;-87
2024/04/15 02:43:44;;;;;;;;;;;;;;;11.57;93.48;96084.44;108348;1284;124898;-87
2024/04/15 02:46:12;;;;;;;;;;;;;;;11.56;93.68;96081.67;108374;1285;22507;-87
2024/04/15 02:48:39;;;;;;;;;;;;;;;11.52;93.76;96078.15;108263;1285;124962;-87
2024/04/15 02:51:05;;;;;;;;;;;;;;;11.48;93.91;96076.95;108346;1285;24187;-87
2024/04/15 02:53:32;;;;;;;;;;;;;;;11.48;94.26;96074.70;108276;1284;125539;-87
2024/04/15 02:55:59;;;;;;;;;;;;;;;11.48;94.47;96075.42;108362;1285;22992;-87
2024/04/15 02:58:25;;;;;;;;;;;;;;;11.46;94.40;96066.23;108318;1285;25258;-86
2024/04/15 03:00:52;;;;;;;;;;;;;;;11.45;94.46;96057.73;108307;1285;124981;-87
2024/04/15 03:03:18;;;;;;;;;;;;;;;11.44;94.80;96050.73;108314;1286;22456;-87
2024/04/15 03:05:45;;;;;;;;;;;;;;;11.43;94.72;96043.33;108320;1277;125133;-86
2024/04/15 03:08:12;;;;;;;;;;;;;;;11.42;94.51;96040.99;108343;1285;22502;-87
2024/04/15 03:10:38;;;;;;;;;;;;;;;11.42;94.78;96033.31;108449;1284;22540;-85
2024/04/15 03:13:05;;;;;;;;;;;;;;;11.42;94.65;96025.63;108258;1285;124893;-86
2024/04/15 03:15:31;;;;;;;;;;;;;;;11.42;95.14;96021.46;108484;1284;22523;-86
2024/04/15 03:17:58;;;;;;;;;;;;;;;11.41;95.00;96017.94;108317;1284;125056;-86
2024/04/15 03:20:27;;;;;;;;;;;;;;;11.41;95.03;96014.18;108409;1285;22514;-86
2024/04/15 03:22:54;;;;;;;;;;;;;;;11.40;94.98;96002.69;108394;1285;22531;-87
2024/04/15 03:25:20;;;;;;;;;;;;;;;11.39;95.42;95995.45;108293;1284;125230;-87
2024/04/15 03:27:47;;;;;;;;;;;;;;;11.40;96.13;95984.84;108355;1285;22524;-87
2024/04/15 03:30:14;;;;;;;;;;;;;;;11.38;95.57;95982.81;108323;1284;124936;-87
2024/04/15 03:32:41;;;;;;;;;;;;;;;11.35;95.62;95986.92;108285;1280;22522;-87
2024/04/15 03:35:12;;;;;;;;;;;;;;;11.36;95.96;95981.41;108397;1280;22499;-87
2024/04/15 03:37:38;;;;;;;;;;;;;;;11.35;95.98;95974.73;108358;1284;125037;-87
2024/04/15 03:40:05;;;;;;;;;;;;;;;11.33;95.89;95969.67;108383;1285;24373;-87
2024/04/15 03:42:31;;;;;;;;;;;;;;;11.33;96.08;95959.59;108292;1284;125168;-87
2024/04/15 03:44:58;;;;;;;;;;;;;;;11.36;96.10;95954.08;108361;1280;22522;-87
2024/04/15 03:47:24;;;;;;;;;;;;;;;11.37;95.99;95951.87;108392;1284;125129;-87
2024/04/15 03:49:50;;;;;;;;;;;;;;;11.39;95.80;95950.19;108416;1285;22584;-87
2024/04/15 03:52:17;;;;;;;;;;;;;;;11.41;96.06;95942.77;108458;1278;24884;-87
2024/04/15 03:54:44;;;;;;;;;;;;;;;11.42;96.27;95930.69;108364;1284;124971;-87
2024/04/15 03:57:11;;;;;;;;;;;;;;;11.43;96.10;95922.29;108394;1284;22547;-87
2024/04/15 03:59:37;;;;;;;;;;;;;;;11.42;95.95;95920.20;108263;1280;125360;-87
2024/04/15 04:02:05;;;;;;;;;;;;;;;11.42;96.40;95917.20;108443;1278;22500;-87
2024/04/15 04:04:31;;;;;;;;;;;;;;;11.43;96.62;95917.33;108355;1285;22658;-87
2024/04/15 04:06:58;;;;;;;;;;;;;;;11.46;97.00;95909.24;108351;1274;124927;-87
2024/04/15 04:09:24;;;;;;;;;;;;;;;11.47;97.48;95901.67;108356;1280;22499;-87
2024/04/15 04:11:51;;;;;;;;;;;;;;;11.47;97.64;95895.08;108252;1284;125348;-87
2024/04/15 04:14:17;;;;;;;;;;;;;;;11.49;97.73;95887.23;108419;1285;24841;-87
2024/04/15 04:16:44;;;;;;;;;;;;;;;11.52;97.50;95883.85;108422;1277;22823;-88
2024/04/15 04:19:11;;;;;;;;;;;;;;;11.55;97.51;95881.02;108196;1285;124959;-87
2024/04/15 04:21:37;;;;;;;;;;;;;;;11.57;97.63;95873.77;108419;1284;22513;-87
2024/04/15 04:24:04;;;;;;;;;;;;;;;11.59;97.89;95880.40;108296;1284;125231;-87
2024/04/15 04:26:30;;;;;;;;;;;;;;;11.61;97.58;95882.40;108464;1284;22559;-87
2024/04/15 04:28:57;;;;;;;;;;;;;;;11.63;98.05;95885.59;108401;1284;22493;-87
2024/04/15 04:31:23;;;;;;;;;;;;;;;11.64;97.89;95885.71;108298;1284;125369;-87
2024/04/15 04:33:49;;;;;;;;;;;;;;;11.65;97.80;95888.02;108383;1285;22526;-87
2024/04/15 04:36:16;;;;;;;;;;;;;;;11.67;98.00;95897.04;108348;1284;124995;-87
2024/04/15 04:38:43;;;;;;;;;;;;;;;11.67;98.23;95929.95;108341;1285;22547;-87
2024/04/15 04:41:09;;;;;;;;;;;;;;;11.64;98.48;95945.33;108348;1284;22501;-87
2024/04/15 04:43:36;;;;;;;;;;;;;;;11.64;99.18;95923.17;108293;1274;125159;-87
2024/04/15 04:46:08;;;;;;;;;;;;;;;11.63;99.67;95909.86;108432;1277;22534;-86
2024/04/15 04:48:35;;;;;;;;;;;;;;;11.63;99.27;95909.98;108294;1278;126641;-87
2024/04/15 04:51:07;;;;;;;;;;;;;;;11.65;99.25;95933.71;108361;1284;22578;-87
2024/04/15 04:53:34;;;;;;;;;;;;;;;11.64;99.86;95982.52;108324;1283;125219;-87
2024/04/15 04:56:10;;;;;;;;;;;;;;;11.64;99.97;96069.36;108352;1285;22531;-87
2024/04/15 04:58:37;;;;;;;;;;;;;;;11.60;100.00;96085.48;108262;1280;22575;-87
2024/04/15 05:01:08;;;;;;;;;;;;;;;11.54;100.00;96086.09;108305;1284;125559;-87
2024/04/15 05:03:35;;;;;;;;;;;;;;;11.49;100.00;96051.81;108449;1277;22496;-86
2024/04/15 05:06:06;;;;;;;;;;;;;;;11.43;100.00;96014.18;108204;1285;125423;-87
2024/04/15 05:08:32;;;;;;;;;;;;;;;11.37;100.00;96009.06;108483;1284;22521;-87
2024/04/15 05:10:59;;;;;;;;;;;;;;;11.32;100.00;96005.70;108405;1277;22957;-88
2024/04/15 05:13:26;;;;;;;;;;;;;;;11.34;100.00;95999.58;108270;1284;125203;-86
2024/04/15 05:15:52;;;;;;;;;;;;;;;11.37;100.00;96005.98;108303;1285;22475;-87
2024/04/15 05:18:19;;;;;;;;;;;;;;;11.31;100.00;95992.64;108292;1285;126111;-87
2024/04/15 05:20:45;;;;;;;;;;;;;;;11.32;100.00;95968.00;108423;1284;22512;-86
2024/04/15 05:23:11;;;;;;;;;;;;;;;11.33;100.00;95977.60;108405;1277;22526;-87
2024/04/15 05:25:38;;;;;;;;;;;;;;;11.34;100.00;95975.52;108355;1284;125172;-87
2024/04/15 05:28:04;;;;;;;;;;;;;;;11.36;100.00;95964.80;108301;1283;22499;-86
2024/04/15 05:30:31;;;;;;;;;;;;;;;11.34;100.00;95943.71;108336;1277;125208;-87
2024/04/15 05:32:57;;;;;;;;;;;;;;;11.32;100.00;95920.90;108408;1284;22547;-87
2024/04/15 05:35:23;;;;;;;;;;;;;;;11.32;100.00;95917.81;108280;1285;125225;-87
2024/04/15 05:37:50;;;;;;;;;;;;;;;11.34;100.00;95926.78;108331;1271;22580;-87
2024/04/15 05:40:16;;;;;;;;;;;;;;;11.38;100.00;95940.84;108375;1278;22880;-86
2024/04/15 05:42:42;;;;;;;;;;;;;;;11.41;100.00;95953.10;108265;1280;125078;-87
2024/04/15 05:45:10;;;;;;;;;;;;;;;11.47;100.00;95982.73;108324;1286;22978;-87
2024/04/15 05:47:36;;;;;;;;;;;;;;;11.54;100.00;95979.38;108285;1277;125304;-87
2024/04/15 05:50:03;;;;;;;;;;;;;;;11.64;100.00;95968.86;108376;1277;24842;-87
2024/04/15 05:52:30;;;;;;;;;;;;;;;11.80;100.00;95958.85;108454;1283;22554;-87
2024/04/15 05:54:56;;;;;;;;;;;;;;;11.90;100.00;95946.02;108297;1285;125237;-87
2024/04/15 05:57:23;;;;;;;;;;;;;;;12.01;100.00;95953.34;108390;1278;22527;-87
2024/04/15 05:59:49;;;;;;;;;;;;;;;12.10;100.00;95955.08;108296;1285;125359;-87
2024/04/15 06:02:16;;;;;;;;;;;;;;;12.16;100.00;95947.96;108388;1279;22529;-87
2024/04/15 06:04:42;;;;;;;;;;;;;;;12.19;100.00;95941.86;108453;1284;22530;-87
2024/04/15 06:07:09;;;;;;;;;;;;;;;12.20;100.00;95936.52;108343;1284;125320;-87
2024/04/15 06:09:40;;;;;;;;;;;;;;;12.21;100.00;95934.39;108388;1279;22543;-87
2024/04/15 06:12:06;;;;;;;;;;;;;;;12.24;100.00;95922.84;108301;1284;125518;-87
2024/04/15 06:14:34;;;;;;;;;;;;;;;12.27;100.00;95907.89;108395;1285;22543;-87
2024/04/15 06:17:00;;;;;;;;;;;;;;;12.28;100.00;95902.84;108393;1277;22553;-87
2024/04/15 06:19:27;;;;;;;;;;;;;;;12.32;100.00;95897.09;108186;1285;125323;-87
2024/04/15 06:21:54;;;;;;;;;;;;;;;12.36;100.00;95901.41;108333;1280;22556;-87
2024/04/15 06:24:20;;;;;;;;;;;;;;;12.41;100.00;95907.90;108337;1284;125061;-87
2024/04/15 06:26:47;;;;;;;;;;;;;;;12.45;100.00;95901.59;108400;1274;22532;-87
2024/04/15 06:29:13;;;;;;;;;;;;;;;12.54;100.00;95901.69;108469;1284;24146;-87
2024/04/15 06:31:40;;;;;;;;;;;;;;;12.67;100.00;95907.52;108356;1284;124982;-88
2024/04/15 06:34:06;;;;;;;;;;;;;;;12.75;100.00;95913.92;108346;1285;22561;-87
2024/04/15 06:36:33;;;;;;;;;;;;;;;12.81;100.00;95912.77;108307;1284;125082;-88
2024/04/15 06:39:00;;;;;;;;;;;;;;;12.88;100.00;95918.09;108422;1277;22612;-88
2024/04/15 06:41:26;;;;;;;;;;;;;;;12.92;100.00;95923.77;108383;1283;125304;-86
2024/04/15 06:43:52;;;;;;;;;;;;;;;12.99;100.00;95935.25;108387;1284;25387;-87
2024/04/15 06:46:19;;;;;;;;;;;;;;;13.06;100.00;95934.90;108380;1280;22699;-87
2024/04/15 06:48:45;;;;;;;;;;;;;;;13.10;100.00;95942.70;108290;1283;125680;-87
2024/04/15 06:51:11;;;;;;;;;;;;;;;13.13;100.00;95952.42;108347;1279;22570;-87
2024/04/15 06:53:38;;;;;;;;;;;;;;;13.13;100.00;95929.60;108335;1284;125440;-87
2024/04/15 06:56:05;;;;;;;;;;;;;;;13.10;100.00;95933.88;108336;1284;22526;-87
2024/04/15 06:58:32;;;;;;;;;;;;;;;13.09;100.00;95925.66;108439;1284;22561;-87
2024/04/15 07:01:00;;;;;;;;;;;;;;;13.10;100.00;95929.30;108312;1281;125338;-88
2024/04/15 07:03:27;;;;;;;;;;;;;;;13.13;100.00;95928.31;108465;1284;25404;-87
2024/04/15 07:05:53;;;;;;;;;;;;;;;13.18;100.00;95926.35;108254;1284;125690;-87
2024/04/15 07:08:20;;;;;;;;;;;;;;;13.19;100.00;95920.06;108362;1278;22547;-88
2024/04/15 07:10:46;;;;;;;;;;;;;;;13.19;100.00;95906.42;108300;1284;22529;-88
2024/04/15 07:13:12;;;;;;;;;;;;;;;13.20;100.00;95893.94;108372;1283;125142;-86
2024/04/15 07:15:39;;;;;;;;;;;;;;;13.24;100.00;95886.64;108364;1277;22663;-87
2024/04/15 07:18:05;;;;;;;;;;;;;;;13.28;100.00;95883.96;108304;1284;125237;-87
2024/04/15 07:20:32;;;;;;;;;;;;;;;13.31;100.00;95877.77;108280;1284;22528;-88
2024/04/15 07:22:58;;;;;;;;;;;;;;;13.34;100.00;95876.58;108437;1278;22550;-87
2024/04/15 07:25:25;;;;;;;;;;;;;;;13.36;100.00;95874.89;108218;1284;125125;-88
2024/04/15 07:27:52;;;;;;;;;;;;;;;13.36;100.00;95881.15;108399;1284;24315;-87
2024/04/15 07:30:18;;;;;;;;;;;;;;;13.36;100.00;95887.38;108304;1284;125615;-87
2024/04/15 07:32:45;;;;;;;;;;;;;;;13.37;100.00;95895.35;108407;1284;22547;-87
2024/04/15 07:35:12;;;;;;;;;;;;;;;13.38;100.00;95905.39;108390;1284;23203;-87
2024/04/15 07:37:38;;;;;;;;;;;;;;;13.36;100.00;95918.21;108305;1279;125190;-88
2024/04/15 07:40:05;;;;;;;;;;;;;;;13.33;100.00;95895.96;108307;1280;25242;-88
2024/04/15 07:42:31;;;;;;;;;;;;;;;13.30;100.00;95900.48;108332;1284;125268;-87
2024/04/15 07:44:57;;;;;;;;;;;;;;;13.26;100.00;95899.55;108408;1284;22696;-87
2024/04/15 07:47:24;;;;;;;;;;;;;;;13.20;100.00;95899.59;108222;1284;125261;-88
2024/04/15 07:49:51;;;;;;;;;;;;;;;13.15;100.00;95888.30;108403;1281;22551;-87
2024/04/15 07:52:17;;;;;;;;;;;;;;;13.12;100.00;95888.15;108416;1282;25249;-88
2024/04/15 07:54:44;;;;;;;;;;;;;;;13.10;100.00;95902.13;108340;1284;125167;-87
2024/04/15 07:57:11;;;;;;;;;;;;;;;13.08;100.00;95905.55;108376;1284;22531;-86
2024/04/15 07:59:38;;;;;;;;;;;;;;;13.05;100.00;95911.20;108370;1274;125431;-87
2024/04/15 08:02:05;;;;;;;;;;;;;;;13.03;100.00;95924.48;108384;1279;22631;-87
2024/04/15 08:04:31;;;;;;;;;;;;;;;13.00;100.00;95927.30;108403;1284;22512;-88
2024/04/15 08:06:58;;;;;;;;;;;;;;;12.93;100.00;95922.92;108316;1284;125128;-87
2024/04/15 08:09:24;;;;;;;;;;;;;;;12.91;100.00;95912.82;108355;1286;23345;-87
2024/04/15 08:11:51;;;;;;;;;;;;;;;12.90;100.00;95896.38;108266;1280;125265;-88
2024/04/15 08:14:18;;;;;;;;;;;;;;;12.93;100.00;95891.27;108383;1285;22509;-88
2024/04/15 08:16:45;;;;;;;;;;;;;;;13.01;100.00;95887.05;108423;1271;22541;-87
2024/04/15 08:19:11;;;;;;;;;;;;;;;13.08;100.00;95882.97;108311;1267;125110;-87
2024/04/15 08:21:38;;;;;;;;;;;;;;;13.10;100.00;95880.63;108335;1270;22699;-87
2024/04/15 08:24:04;;;;;;;;;;;;;;;13.15;100.00;95885.13;108301;1285;125500;-88
2024/04/15 08:26:31;;;;;;;;;;;;;;;13.21;100.00;95884.94;108430;1284;22540;-87
2024/04/15 08:28:58;;;;;;;;;;;;;;;13.27;100.00;95891.03;108346;1280;22548;-87
2024/04/15 08:31:24;;;;;;;;;;;;;;;13.32;100.00;95896.20;108345;1284;125135;-88
2024/04/15 08:33:51;;;;;;;;;;;;;;;13.33;100.00;95892.75;108369;1284;22477;-87
2024/04/15 08:36:17;;;;;;;;;;;;;;;13.33;100.00;95897.13;108325;1284;125354;-88
2024/04/15 08:38:45;;;;;;;;;;;;;;;13.33;100.00;95884.16;108402;1284;22561;-87
2024/04/15 08:41:14;;;;;;;;;;;;;;;13.29;100.00;95862.15;108446;1281;23278;-87
2024/04/15 08:43:40;;;;;;;;;;;;;;;13.29;100.00;95852.57;108298;1285;125159;-87
2024/04/15 08:46:07;;;;;;;;;;;;;;;13.34;100.00;95843.25;108449;1284;22474;-87
2024/04/15 08:48:33;;;;;;;;;;;;;;;13.43;100.00;95839.05;108302;1285;125324;-87
2024/04/15 08:51:00;;;;;;;;;;;;;;;13.53;100.00;95833.80;108384;1285;22533;-88
2024/04/15 08:53:27;;;;;;;;;;;;;;;13.57;100.00;95838.84;108285;1285;125418;-88
2024/04/15 08:55:53;;;;;;;;;;;;;;;13.54;100.00;95878.10;108418;1284;23189;-88
2024/04/15 08:58:20;;;;;;;;;;;;;;;13.50;100.00;95934.09;108392;1278;23959;-87
2024/04/15 09:00:47;;;;;;;;;;;;;;;13.44;100.00;95989.20;108329;1278;125137;-88
2024/04/15 09:03:13;;;;;;;;;;;;;;;13.29;100.00;95986.08;108418;1284;22517;-87
2024/04/15 09:05:40;;;;;;;;;;;;;;;13.13;100.00;95965.98;108327;1281;125471;-87
2024/04/15 09:08:06;;;;;;;;;;;;;;;12.99;100.00;95963.38;108381;1279;22599;-88
2024/04/15 09:10:33;;;;;;;;;;;;;;;12.88;100.00;95917.73;108468;1284;22638;-88
2024/04/15 09:13:00;;;;;;;;;;;;;;;12.81;100.00;95902.23;108291;1284;125417;-87
2024/04/15 09:15:27;;;;;;;;;;;;;;;12.76;100.00;95902.16;108399;1285;22676;-88
2024/04/15 09:17:53;;;;;;;;;;;;;;;12.73;100.00;95900.78;108306;1283;125289;-87
2024/04/15 09:20:21;;;;;;;;;;;;;;;12.74;100.00;95888.15;108344;1285;24762;-87
2024/04/15 09:22:47;;;;;;;;;;;;;;;12.74;100.00;95890.15;108432;1283;22535;-88
2024/04/15 09:25:14;;;;;;;;;;;;;;;12.71;100.00;95915.04;108355;1284;125318;-88
2024/04/15 09:27:41;;;;;;;;;;;;;;;12.67;100.00;95934.83;108359;1285;22818;-87
2024/04/15 09:30:07;;;;;;;;;;;;;;;12.62;100.00;95932.97;108271;1285;125566;-86
2024/04/15 09:32:34;;;;;;;;;;;;;;;12.57;100.00;95927.94;108420;1277;24208;-88
2024/04/15 09:35:01;;;;;;;;;;;;;;;12.52;100.00;95919.89;108413;1284;22514;-87
2024/04/15 09:37:28;;;;;;;;;;;;;;;12.46;100.00;95912.45;108266;1283;125253;-87
2024/04/15 09:39:54;;;;;;;;;;;;;;;12.42;100.00;95909.74;108413;1284;22507;-87
2024/04/15 09:42:21;;;;;;;;;;;;;;;12.39;100.00;95907.31;108264;1284;125731;-87
2024/04/15 09:44:47;;;;;;;;;;;;;;;12.37;100.00;95917.73;108435;1284;22534;-87
2024/04/15 09:47:13;;;;;;;;;;;;;;;12.33;100.00;95927.61;108409;1278;22535;-87
2024/04/15 09:49:40;;;;;;;;;;;;;;;12.28;100.00;95932.89;108229;1285;125006;-87
2024/04/15 09:52:07;;;;;;;;;;;;;;;12.23;100.00;95923.70;108426;1284;23112;-87
2024/04/15 09:54:34;;;;;;;;;;;;;;;12.20;100.00;95914.52;108290;1285;125230;-88
2024/04/15 09:57:20;;;;;;;;;;;;;;;12.20;100.00;95897.52;108401;1284;22525;-87
2024/04/15 09:59:50;;;;;;;;;;;;;;;12.20;100.00;95879.45;108317;1278;125313;-88
2024/04/15 10:02:21;;;;;;;;;;;;;;;12.22;100.00;95868.19;108237;1285;22551;-87
2024/04/15 10:04:48;;;;;;;;;;;;;;;12.23;100.00;95869.88;108451;1284;25208;-88
2024/04/15 10:07:15;;;;;;;;;;;;;;;12.26;100.00;95875.14;108306;1284;125154;-87
2024/04/15 10:09:41;;;;;;;;;;;;;;;12.28;100.00;95877.10;108353;1283;25243;-87
2024/04/15 10:12:07;;;;;;;;;;;;;;;12.28;100.00;95883.76;108231;1285;125489;-87
2024/04/15 10:14:34;;;;;;;;;;;;;;;12.28;100.00;95881.99;108272;1285;22627;-87
2024/04/15 10:17:00;;;;;;;;;;;;;;;12.26;100.00;95877.02;108380;1277;22543;-87
2024/04/15 10:19:32;;;;;;;;;;;;;;;12.20;100.00;95883.38;108260;1281;125261;-87
2024/04/15 10:21:59;;;;;;;;;;;;;;;12.17;100.00;95874.55;108163;1284;226505;-87
2024/04/15 10:24:26;;;;;;;;;;;;;;;12.14;100.00;95872.40;108323;1278;125269;-87
2024/04/15 10:26:52;;;;;;;;;;;;;;;12.11;100.00;95874.58;108282;1281;22586;-88
2024/04/15 10:29:19;;;;;;;;;;;;;;;12.09;100.00;95895.14;108308;1286;24190;-88
2024/04/15 10:31:50;;;;;;;;;;;;;;;12.10;100.00;95899.90;108209;1278;125262;-88
2024/04/15 10:34:16;;;;;;;;;;;;;;;12.06;100.00;95910.29;108324;1284;22850;-87
2024/04/15 10:36:43;;;;;;;;;;;;;;;12.02;100.00;95919.72;108264;1284;125305;-87
2024/04/15 10:39:16;;;;;;;;;;;;;;;12.00;100.00;95912.04;108324;1284;22569;-87
2024/04/15 10:41:42;;;;;;;;;;;;;;;11.95;100.00;95902.67;108302;1284;125435;-87
2024/04/15 10:44:09;;;;;;;;;;;;;;;11.86;100.00;95892.46;108367;1284;23091;-88
2024/04/15 10:46:36;;;;;;;;;;;;;;;11.77;100.00;95886.20;108286;1284;22555;-88
2024/04/15 10:49:04;;;;;;;;;;;;;;;11.66;100.00;95882.02;108343;1281;125144;-88
2024/04/15 10:51:30;;;;;;;;;;;;;;;11.62;100.00;95877.15;108446;1284;22533;-87
2024/04/15 10:53:57;;;;;;;;;;;;;;;11.63;100.00;95854.25;108210;1284;125635;-88
2024/04/15 10:56:23;;;;;;;;;;;;;;;11.65;100.00;95843.11;108342;1284;23186;-87
2024/04/15 10:58:50;;;;;;;;;;;;;;;11.68;100.00;95834.21;108353;1283;22465;-87
2024/04/15 11:01:16;;;;;;;;;;;;;;;11.69;100.00;95831.61;108312;1283;125232;-87
2024/04/15 11:03:43;;;;;;;;;;;;;;;11.70;100.00;95841.95;108432;1283;22550;-87
2024/04/15 11:06:10;;;;;;;;;;;;;;;11.67;100.00;95843.87;108256;1283;125533;-87
2024/04/15 11:08:36;;;;;;;;;;;;;;;11.57;100.00;95853.53;108406;1283;22506;-86
2024/04/15 11:11:02;;;;;;;;;;;;;;;11.49;100.00;95860.53;108281;1279;22555;-88
2024/04/15 11:13:29;;;;;;;;;;;;;;;11.41;100.00;95853.41;108318;1283;125197;-87
2024/04/15 11:15:56;;;;;;;;;;;;;;;11.34;100.00;95855.11;108395;1277;22544;-87
2024/04/15 11:18:23;;;;;;;;;;;;;;;11.27;100.00;95857.08;108361;1281;125151;-87
2024/04/15 11:21:10;;;;;;;;;;;;;;;11.21;100.00;95858.30;108446;1279;22504;-87
2024/04/15 11:23:36;;;;;;;;;;;;;;;11.14;100.00;95855.17;108407;1283;125463;-87
2024/04/15 11:26:03;;;;;;;;;;;;;;;11.07;100.00;95849.60;108479;1283;24203;-87
2024/04/15 11:28:29;;;;;;;;;;;;;;;11.04;100.00;95856.06;108422;1284;22504;-87
2024/04/15 11:30:56;;;;;;;;;;;;;;;11.06;100.00;95851.32;108338;1283;125054;-87
2024/04/15 11:33:22;;;;;;;;;;;;;;;11.12;100.00;95853.05;108296;1283;22550;-88
2024/04/15 11:35:49;;;;;;;;;;;;;;;11.15;100.00;95843.65;108404;1284;125321;-87
2024/04/15 11:38:15;;;;;;;;;;;;;;;11.06;100.00;95835.36;108424;1282;22541;-87
2024/04/15 11:40:42;;;;;;;;;;;;;;;11.01;100.00;95830.66;108392;1283;23232;-87
2024/04/15 11:43:08;;;;;;;;;;;;;;;11.00;100.00;95816.91;108337;1277;125185;-88
2024/04/15 11:45:35;;;;;;;;;;;;;;;10.98;100.00;95823.75;108433;1283;25262;-88
2024/04/15 11:48:01;;;;;;;;;;;;;;;10.96;100.00;95805.55;108293;1283;125532;-88
2024/04/15 11:50:28;;;;;;;;;;;;;;;10.93;100.00;95781.84;108422;1283;22512;-87
2024/04/15 11:52:58;;;;;;;;;;;;;;;10.91;100.00;95784.71;108525;1283;22507;-88
2024/04/15 11:55:25;;;;;;;;;;;;;;;10.95;100.00;95765.60;108324;1276;125217;-88
2024/04/15 11:57:52;;;;;;;;;;;;;;;11.03;100.00;95766.27;108419;1283;22566;-88
2024/04/15 12:00:19;;;;;;;;;;;;;;;11.15;100.00;95773.77;108287;1284;125115;-88
2024/04/15 12:02:46;;;;;;;;;;;;;;;11.25;100.00;95775.91;108355;1279;22523;-88
2024/04/15 12:05:13;;;;;;;;;;;;;;;11.26;100.00;95774.86;108461;1281;24222;-87
2024/04/15 12:07:40;;;;;;;;;;;;;;;11.30;100.00;95769.81;108267;1284;124926;-88
2024/04/15 12:10:06;;;;;;;;;;;;;;;11.30;100.00;95776.45;108394;1278;22537;-88
2024/04/15 12:12:33;;;;;;;;;;;;;;;11.26;100.00;95769.86;108258;1284;125487;-88
2024/04/15 12:15:00;;;;;;;;;;;;;;;11.19;100.00;95770.12;108398;1277;22530;-88
2024/04/15 12:17:27;;;;;;;;;;;;;;;11.06;100.00;95767.89;108220;1284;125310;-88
2024/04/15 12:19:53;;;;;;;;;;;;;;;10.99;100.00;95762.59;108410;1284;23372;-87
2024/04/15 12:22:19;;;;;;;;;;;;;;;11.00;100.00;95754.00;108366;1285;22547;-88
2024/04/15 12:24:46;;;;;;;;;;;;;;;11.05;100.00;95750.33;108182;1284;125373;-88